Time;durP1;ratioP1;P1;durP2;ratioP2;P2;SDS_P1;SDS_P2;PMS_P1;PMS_P2;Temp;Humidity;BMP_temperature;BMP_pressure;BME280_temperature;BME280_humidity;BME280_pressure;Samples;Min_cycle;Max_cycle;Signal;HPM_P1;HPM_P2
2021/01/29 00:00:10;;;;;;;7.72;4.15;;;0.50;64.20;;;;;;5039874;28;20105;-67
2021/01/29 00:02:36;;;;;;;5.28;3.63;;;0.60;62.60;;;;;;5039797;28;20314;-67
2021/01/29 00:05:03;;;;;;;5.65;3.53;;;0.60;62.00;;;;;;5039392;28;20029;-67
2021/01/29 00:07:28;;;;;;;7.88;4.18;;;0.70;61.20;;;;;;5039425;28;20322;-67
2021/01/29 00:09:54;;;;;;;5.47;3.40;;;0.80;60.10;;;;;;5039407;28;20026;-67
2021/01/29 00:12:23;;;;;;;8.73;3.80;;;0.80;60.20;;;;;;5039343;28;20022;-67
2021/01/29 00:14:49;;;;;;;8.93;5.72;;;0.70;61.30;;;;;;5039165;28;20029;-67
2021/01/29 00:17:15;;;;;;;9.52;6.65;;;0.50;62.70;;;;;;5039250;28;20116;-67
2021/01/29 00:19:41;;;;;;;8.35;6.18;;;0.30;65.60;;;;;;5039496;28;20108;-67
2021/01/29 00:22:07;;;;;;;10.27;8.23;;;0.10;65.80;;;;;;5039438;28;20053;-67
2021/01/29 00:24:33;;;;;;;14.48;10.77;;;-0.10;67.80;;;;;;5039374;28;20044;-67
2021/01/29 00:26:59;;;;;;;22.48;14.43;;;-0.10;71.60;;;;;;5039040;28;20041;-67
2021/01/29 00:29:25;;;;;;;19.20;14.43;;;-0.10;74.30;;;;;;5038843;28;20107;-67
2021/01/29 00:31:51;;;;;;;27.73;18.05;;;-0.10;74.90;;;;;;5039027;28;20034;-67
2021/01/29 00:34:17;;;;;;;25.90;16.55;;;-0.20;77.70;;;;;;5038953;28;20025;-67
2021/01/29 00:36:42;;;;;;;31.45;18.25;;;-0.20;77.10;;;;;;5039099;28;20029;-67
2021/01/29 00:39:08;;;;;;;17.83;14.18;;;-0.30;78.10;;;;;;5038868;28;20041;-67
2021/01/29 00:41:34;;;;;;;21.35;15.05;;;-0.40;76.70;;;;;;5038851;28;20152;-67
2021/01/29 00:43:59;;;;;;;18.30;12.88;;;-0.50;77.00;;;;;;5038790;28;20022;-67
2021/01/29 00:46:25;;;;;;;15.45;11.07;;;-0.70;77.00;;;;;;5038717;28;20030;-68
2021/01/29 00:48:51;;;;;;;13.80;9.65;;;-0.80;76.40;;;;;;5038624;28;20036;-67
2021/01/29 00:51:16;;;;;;;14.73;9.43;;;-0.90;75.60;;;;;;5037591;28;20151;-67
2021/01/29 00:53:43;;;;;;;9.38;8.00;;;-0.90;75.20;;;;;;5038637;28;20422;-67
2021/01/29 00:56:09;;;;;;;12.63;6.97;;;-0.90;75.10;;;;;;5038949;28;20025;-67
2021/01/29 00:58:35;;;;;;;8.98;6.97;;;-1.00;74.70;;;;;;5036860;28;20042;-67
2021/01/29 01:01:01;;;;;;;9.38;5.68;;;-1.00;74.60;;;;;;5037397;28;20117;-67
2021/01/29 01:03:27;;;;;;;8.65;5.53;;;-1.00;73.50;;;;;;5038878;28;20060;-67
2021/01/29 01:05:55;;;;;;;17.08;10.90;;;-1.00;72.70;;;;;;5038255;28;20030;-67
2021/01/29 01:08:21;;;;;;;14.52;10.45;;;-1.00;74.40;;;;;;5037259;28;20039;-67
2021/01/29 01:10:47;;;;;;;14.80;10.13;;;-1.00;76.10;;;;;;5038284;28;20105;-67
2021/01/29 01:13:12;;;;;;;12.25;8.80;;;-1.00;75.90;;;;;;5038386;28;20033;-67
2021/01/29 01:15:38;;;;;;;10.73;7.22;;;-1.00;75.30;;;;;;5037023;28;20022;-67
2021/01/29 01:18:05;;;;;;;11.18;7.45;;;-1.00;74.10;;;;;;5038424;28;20025;-67
2021/01/29 01:20:31;;;;;;;13.05;9.27;;;-1.10;74.30;;;;;;5038047;28;20036;-67
2021/01/29 01:22:57;;;;;;;13.07;9.48;;;-1.20;75.40;;;;;;5038040;28;20026;-67
2021/01/29 01:25:24;;;;;;;15.85;9.38;;;-1.20;75.60;;;;;;5038173;28;20040;-67
2021/01/29 01:27:50;;;;;;;24.38;9.98;;;-1.30;75.50;;;;;;5037916;28;20040;-67
2021/01/29 01:30:19;;;;;;;12.50;9.32;;;-1.30;75.80;;;;;;5037786;28;20045;-67
2021/01/29 01:32:45;;;;;;;14.30;9.07;;;-1.40;75.80;;;;;;5037860;28;20029;-67
2021/01/29 01:35:13;;;;;;;12.88;8.90;;;-1.30;75.70;;;;;;5037696;28;20033;-67
2021/01/29 01:37:39;;;;;;;13.40;8.35;;;-1.30;75.70;;;;;;5036740;28;20022;-67
2021/01/29 01:40:07;;;;;;;11.50;8.05;;;-1.30;75.70;;;;;;5036636;28;20029;-67
2021/01/29 01:42:33;;;;;;;10.35;7.65;;;-1.30;75.60;;;;;;5036566;28;20018;-67
2021/01/29 01:45:00;;;;;;;14.90;7.57;;;-1.30;74.50;;;;;;5037565;28;20365;-67
2021/01/29 01:47:35;;;;;;;11.52;7.50;;;-1.30;74.00;;;;;;5037508;28;20414;-67
2021/01/29 01:50:15;;;;;;;11.50;7.47;;;-1.30;73.60;;;;;;5037503;28;20021;-67
2021/01/29 01:52:42;;;;;;;11.90;8.27;;;-1.20;73.50;;;;;;5037572;28;20029;-67
2021/01/29 01:55:22;;;;;;;11.65;7.75;;;-1.20;74.50;;;;;;5037578;28;20353;-67
2021/01/29 01:57:50;;;;;;;10.70;7.50;;;-1.10;74.50;;;;;;5037617;28;20088;-67
2021/01/29 02:00:24;;;;;;;10.52;6.47;;;-1.30;75.00;;;;;;5037326;28;20329;-67
2021/01/29 02:02:56;;;;;;;10.93;7.22;;;-1.30;75.10;;;;;;5037899;28;20310;-67
2021/01/29 02:05:39;;;;;;;10.43;6.97;;;-1.20;73.60;;;;;;5037518;28;20365;-67
2021/01/29 02:08:08;;;;;;;11.32;6.65;;;-1.00;72.20;;;;;;5037252;28;20026;-67
2021/01/29 02:10:34;;;;;;;9.27;6.68;;;-1.00;73.40;;;;;;5036245;28;20075;-67
2021/01/29 02:13:03;;;;;;;9.82;6.00;;;-1.10;73.20;;;;;;5037328;28;20067;-67
2021/01/29 02:15:36;;;;;;;7.18;5.43;;;-1.10;72.40;;;;;;5037178;28;20028;-67
2021/01/29 02:18:38;;;;;;;7.60;5.43;;;-1.10;73.00;;;;;;5037415;28;20021;-67
2021/01/29 02:21:26;;;;;;;7.97;5.47;;;-1.10;71.80;;;;;;5037277;28;20337;-67
2021/01/29 02:24:06;;;;;;;8.52;5.68;;;-1.10;71.00;;;;;;5036903;28;20409;-67
2021/01/29 02:27:32;;;;;;;8.85;6.43;;;-1.10;71.80;;;;;;5036890;28;20029;-67
2021/01/29 02:30:23;;;;;;;12.35;7.80;;;-1.10;72.50;;;;;;5035040;28;20381;-67
2021/01/29 02:33:07;;;;;;;10.65;6.85;;;-1.10;73.10;;;;;;5035424;28;20025;-67
2021/01/29 02:35:51;;;;;;;11.35;5.85;;;-1.10;73.10;;;;;;5030669;28;20041;-67
2021/01/29 02:38:42;;;;;;;11.35;6.20;;;-1.20;73.10;;;;;;5036880;28;20026;-67
2021/01/29 02:41:36;;;;;;;11.50;6.10;;;-1.20;73.00;;;;;;5037009;28;20033;-67
2021/01/29 02:44:33;;;;;;;10.75;5.97;;;-1.20;72.80;;;;;;5036415;28;20049;-67
2021/01/29 02:47:08;;;;;;;7.63;5.70;;;-1.20;72.70;;;;;;5035561;28;20036;-67
2021/01/29 02:49:39;;;;;;;7.22;4.93;;;-1.10;72.90;;;;;;5036983;28;20076;-68
2021/01/29 02:52:17;;;;;;;9.50;5.53;;;-1.10;73.00;;;;;;5036889;28;20032;-69
2021/01/29 02:54:59;;;;;;;9.02;4.95;;;-1.10;72.50;;;;;;5036879;28;20033;-69
2021/01/29 02:57:53;;;;;;;6.88;5.28;;;-1.10;73.20;;;;;;5036854;28;20104;-69
2021/01/29 03:01:09;;;;;;;7.15;4.80;;;-1.10;74.10;;;;;;5034772;28;20068;-69
2021/01/29 03:03:41;;;;;;;6.88;4.90;;;-1.10;73.90;;;;;;5035876;28;20095;-69
2021/01/29 03:06:34;;;;;;;6.95;5.25;;;-1.10;73.10;;;;;;5036688;28;20033;-69
2021/01/29 03:09:35;;;;;;;6.35;5.07;;;-1.00;72.00;;;;;;5035638;28;20060;-69
2021/01/29 03:12:11;;;;;;;6.50;4.28;;;-1.00;72.70;;;;;;5036456;28;20513;-69
2021/01/29 03:14:42;;;;;;;7.43;4.93;;;-0.90;72.00;;;;;;5035395;28;20036;-69
2021/01/29 03:17:32;;;;;;;10.63;5.22;;;-0.80;71.90;;;;;;5036310;28;20034;-69
2021/01/29 03:20:27;;;;;;;7.35;5.03;;;-0.70;71.50;;;;;;5036362;28;20054;-69
2021/01/29 03:22:59;;;;;;;6.32;4.55;;;-0.60;71.10;;;;;;5038944;28;20095;-69
2021/01/29 03:25:42;;;;;;;9.80;5.88;;;-0.60;71.30;;;;;;5040557;28;20036;-69
2021/01/29 03:28:13;;;;;;;6.70;5.13;;;-0.60;72.40;;;;;;5040350;28;20096;-67
2021/01/29 03:30:42;;;;;;;7.47;5.63;;;-0.60;73.10;;;;;;5039930;28;20128;-67
2021/01/29 03:33:12;;;;;;;9.02;6.72;;;-0.50;73.40;;;;;;5040391;28;20320;-67
2021/01/29 03:35:44;;;;;;;9.00;6.38;;;-0.50;72.20;;;;;;5039970;28;20024;-67
2021/01/29 03:38:16;;;;;;;11.20;7.90;;;-0.40;70.50;;;;;;5040055;28;20057;-67
2021/01/29 03:40:44;;;;;;;11.85;8.40;;;-0.30;69.60;;;;;;5040162;28;20497;-67
2021/01/29 03:43:26;;;;;;;15.95;8.95;;;-0.30;70.90;;;;;;5040172;28;20028;-67
2021/01/29 03:46:18;;;;;;;11.05;8.23;;;-0.20;71.60;;;;;;5040052;28;20064;-67
2021/01/29 03:49:16;;;;;;;11.88;7.80;;;-0.10;71.40;;;;;;5039243;28;20041;-67
2021/01/29 03:52:06;;;;;;;10.07;6.00;;;-0.10;71.50;;;;;;5038956;28;20037;-67
2021/01/29 03:54:42;;;;;;;10.52;7.70;;;-0.10;70.40;;;;;;5039827;28;20426;-67
2021/01/29 03:57:23;;;;;;;15.10;8.38;;;-0.10;70.40;;;;;;5039618;28;20036;-67
2021/01/29 03:59:49;;;;;;;14.25;7.85;;;-0.10;70.70;;;;;;5039617;28;20033;-67
2021/01/29 04:02:27;;;;;;;10.80;8.32;;;-0.10;71.70;;;;;;5039821;28;20029;-67
2021/01/29 04:04:53;;;;;;;15.18;8.75;;;-0.10;71.80;;;;;;5039438;28;20369;-67
2021/01/29 04:07:26;;;;;;;13.35;8.95;;;-0.10;73.20;;;;;;5039449;28;20414;-67
2021/01/29 04:10:01;;;;;;;17.65;11.07;;;-0.20;74.20;;;;;;5039591;28;20037;-67
2021/01/29 04:12:30;;;;;;;17.35;13.77;;;-0.20;75.40;;;;;;5039536;28;20096;-67
2021/01/29 04:15:12;;;;;;;16.83;12.85;;;-0.20;77.20;;;;;;5039569;28;20095;-67
2021/01/29 04:18:13;;;;;;;19.13;15.73;;;-0.20;77.80;;;;;;5039400;28;20021;-67
2021/01/29 04:21:05;;;;;;;20.83;14.98;;;-0.20;78.50;;;;;;5038221;28;20029;-67
2021/01/29 04:23:34;;;;;;;23.05;16.85;;;-0.20;78.10;;;;;;5039517;28;20345;-67
2021/01/29 04:26:06;;;;;;;25.38;16.70;;;-0.20;78.10;;;;;;5038978;28;20025;-67
2021/01/29 04:28:38;;;;;;;20.33;16.08;;;-0.10;78.70;;;;;;5039238;28;20109;-67
2021/01/29 04:31:06;;;;;;;24.27;17.08;;;-0.10;78.90;;;;;;5038923;28;20080;-67
2021/01/29 04:33:39;;;;;;;20.48;15.85;;;-0.10;78.50;;;;;;5037933;28;20022;-67
2021/01/29 04:36:08;;;;;;;22.58;15.48;;;0.00;78.00;;;;;;5038956;28;20028;-67
2021/01/29 04:38:34;;;;;;;22.63;16.17;;;0.00;78.30;;;;;;5037931;28;20017;-67
2021/01/29 04:41:11;;;;;;;20.85;15.15;;;0.00;78.00;;;;;;5038865;28;20108;-67
2021/01/29 04:43:56;;;;;;;20.50;16.67;;;0.10;78.00;;;;;;5038758;28;20033;-67
2021/01/29 04:46:35;;;;;;;24.75;18.13;;;0.10;78.30;;;;;;5039001;28;20129;-67
2021/01/29 04:49:19;;;;;;;24.02;17.80;;;0.20;78.60;;;;;;5038911;28;20353;-67
2021/01/29 04:51:54;;;;;;;23.35;17.70;;;0.20;77.40;;;;;;5038927;28;20045;-69
2021/01/29 04:54:41;;;;;;;22.63;14.90;;;0.20;78.10;;;;;;5037548;28;20037;-67
2021/01/29 04:57:40;;;;;;;20.02;15.52;;;0.20;78.30;;;;;;5038581;28;20036;-67
2021/01/29 05:00:47;;;;;;;20.65;14.45;;;0.20;78.00;;;;;;5037461;28;20041;-67
2021/01/29 05:03:23;;;;;;;17.73;13.40;;;0.20;77.40;;;;;;5038495;28;20361;-67
2021/01/29 05:06:12;;;;;;;18.10;13.77;;;0.20;77.10;;;;;;5038362;28;20029;-67
2021/01/29 05:08:56;;;;;;;21.05;14.95;;;0.20;76.70;;;;;;5038365;28;20109;-67
2021/01/29 05:11:43;;;;;;;18.83;13.85;;;0.30;76.90;;;;;;5038560;28;20375;-69
2021/01/29 05:14:30;;;;;;;17.15;14.15;;;0.30;77.30;;;;;;5038178;28;20033;-69
2021/01/29 05:17:23;;;;;;;17.58;12.55;;;0.30;77.50;;;;;;5038413;28;20060;-67
2021/01/29 05:20:15;;;;;;;20.58;15.93;;;0.40;77.80;;;;;;5038391;28;20112;-67
2021/01/29 05:22:55;;;;;;;27.08;17.50;;;0.40;77.50;;;;;;5038232;28;20061;-67
2021/01/29 05:25:49;;;;;;;23.30;18.05;;;0.40;77.70;;;;;;5038357;28;20410;-67
2021/01/29 05:28:41;;;;;;;24.45;17.70;;;0.40;77.70;;;;;;5038249;28;20079;-67
2021/01/29 05:31:33;;;;;;;22.30;17.52;;;0.50;77.30;;;;;;5037779;28;20091;-67
2021/01/29 05:34:12;;;;;;;25.50;19.55;;;0.50;77.90;;;;;;5037834;28;20022;-67
2021/01/29 05:37:05;;;;;;;21.30;15.68;;;0.50;78.10;;;;;;5037761;28;20414;-67
2021/01/29 05:39:57;;;;;;;22.90;16.23;;;0.50;77.70;;;;;;5037759;28;20052;-67
2021/01/29 05:43:01;;;;;;;21.55;16.88;;;0.50;77.50;;;;;;5037672;28;20534;-69
2021/01/29 05:45:26;;;;;;;28.40;16.63;;;0.50;77.10;;;;;;5037373;28;20026;-69
2021/01/29 05:48:11;;;;;;;22.80;18.48;;;0.50;77.20;;;;;;5037892;28;20034;-68
2021/01/29 05:50:36;;;;;;;24.30;19.60;;;0.40;77.90;;;;;;5037585;28;20029;-67
2021/01/29 05:53:05;;;;;;;33.38;25.30;;;0.40;78.30;;;;;;5037498;28;20033;-67
2021/01/29 05:55:52;;;;;;;24.35;20.17;;;0.30;77.80;;;;;;5037272;28;20068;-69
2021/01/29 05:58:21;;;;;;;22.70;17.25;;;0.30;77.70;;;;;;5037790;28;20029;-69
2021/01/29 06:01:17;;;;;;;21.58;16.02;;;0.30;78.10;;;;;;5036305;28;20330;-69
2021/01/29 06:04:30;;;;;;;22.63;16.13;;;0.30;78.60;;;;;;5037844;28;20030;-69
2021/01/29 06:07:17;;;;;;;130.45;41.28;;;0.40;78.80;;;;;;5050907;28;20045;-67
2021/01/29 06:10:07;;;;;;;213.02;89.93;;;0.40;77.60;;;;;;5037402;28;20444;-67
2021/01/29 06:13:20;;;;;;;50.10;29.13;;;0.40;76.30;;;;;;5037436;28;20398;-67
2021/01/29 06:16:11;;;;;;;27.70;19.08;;;0.60;76.70;;;;;;5040562;28;20124;-67
2021/01/29 06:19:04;;;;;;;24.70;18.65;;;0.70;76.40;;;;;;5036885;28;20087;-67
2021/01/29 06:21:51;;;;;;;23.40;17.40;;;0.70;76.10;;;;;;5037136;28;20317;-67
2021/01/29 06:24:35;;;;;;;;;;;0.60;76.20;;;;;;5037495;28;20108;-67
2021/01/29 06:27:26;;;;;;;30.08;19.70;;;0.60;77.00;;;;;;5036878;28;19913;-69
2021/01/29 06:30:27;;;;;;;31.98;21.08;;;0.60;77.70;;;;;;5036919;28;20045;-69
2021/01/29 06:33:30;;;;;;;43.10;24.45;;;0.50;78.10;;;;;;5037481;28;20037;-67
2021/01/29 06:36:12;;;;;;;37.30;24.38;;;0.30;78.10;;;;;;5036989;28;20029;-67
2021/01/29 06:39:16;;;;;;;26.67;18.48;;;0.30;78.10;;;;;;5036879;28;20021;-67
2021/01/29 06:41:56;;;;;;;21.70;15.90;;;0.20;77.70;;;;;;5036724;28;20452;-69
2021/01/29 06:44:25;;;;;;;20.20;15.85;;;0.10;77.70;;;;;;5036832;28;20029;-69
2021/01/29 06:47:12;;;;;;;21.55;15.32;;;0.00;77.50;;;;;;5036678;28;20035;-69
2021/01/29 06:50:22;;;;;;;19.70;15.75;;;0.10;77.90;;;;;;5036837;28;20021;-69
2021/01/29 06:52:53;;;;;;;19.67;14.43;;;0.00;78.70;;;;;;5036923;28;20143;-69
2021/01/29 06:55:25;;;;;;;23.52;16.33;;;0.00;79.10;;;;;;5036951;28;20074;-69
2021/01/29 06:58:06;;;;;;;27.05;17.67;;;0.00;79.10;;;;;;5043049;28;20130;-69
2021/01/29 07:01:02;;;;;;;38.40;24.48;;;0.00;79.60;;;;;;5043350;28;20430;-69
2021/01/29 07:03:46;;;;;;;38.65;23.38;;;0.00;79.90;;;;;;5043788;28;20029;-69
2021/01/29 07:06:24;;;;;;;25.80;19.63;;;-0.10;80.00;;;;;;5042976;28;20418;-69
2021/01/29 07:09:11;;;;;;;26.33;17.67;;;-0.10;80.00;;;;;;5043020;28;20039;-69
2021/01/29 07:11:39;;;;;;;24.65;17.85;;;-0.20;80.20;;;;;;5043187;28;20053;-67
2021/01/29 07:14:34;;;;;;;23.25;18.10;;;-0.20;80.00;;;;;;5043127;28;20025;-67
2021/01/29 07:17:28;;;;;;;34.97;21.48;;;-0.20;80.60;;;;;;5042979;28;20029;-67
2021/01/29 07:20:14;;;;;;;23.63;17.48;;;-0.20;80.00;;;;;;5041985;28;20045;-67
2021/01/29 07:23:01;;;;;;;21.52;16.67;;;-0.10;79.20;;;;;;5042937;28;20318;-67
2021/01/29 07:25:37;;;;;;;31.95;20.83;;;0.00;78.60;;;;;;5041718;28;20030;-67
2021/01/29 07:28:15;;;;;;;38.13;27.95;;;0.20;78.00;;;;;;5043073;28;20038;-67
2021/01/29 07:30:59;;;;;;;38.95;30.08;;;0.20;78.00;;;;;;5042679;28;20045;-67
2021/01/29 07:33:48;;;;;;;23.05;16.83;;;0.20;77.90;;;;;;5043408;28;20101;-67
2021/01/29 07:36:29;;;;;;;20.17;14.57;;;0.30;77.20;;;;;;5042949;28;20014;-67
2021/01/29 07:39:16;;;;;;;21.65;15.52;;;0.40;76.80;;;;;;5041799;28;20033;-67
2021/01/29 07:42:16;;;;;;;19.35;13.38;;;0.50;75.00;;;;;;5042860;28;20414;-68
2021/01/29 07:45:00;;;;;;;16.85;13.13;;;0.50;73.80;;;;;;5043022;28;20065;-67
2021/01/29 07:47:46;;;;;;;21.38;14.77;;;0.60;73.10;;;;;;5042818;28;20021;-67
2021/01/29 07:50:35;;;;;;;18.05;12.38;;;0.60;73.40;;;;;;5042828;28;20040;-69
2021/01/29 07:53:30;;;;;;;21.58;12.75;;;0.70;72.40;;;;;;5042849;28;20068;-67
2021/01/29 07:56:17;;;;;;;19.05;12.73;;;0.70;71.90;;;;;;5050081;28;20045;-67
2021/01/29 07:59:02;;;;;;;23.90;13.55;;;0.80;72.30;;;;;;5042964;28;20034;-69
2021/01/29 08:01:36;;;;;;;18.40;12.23;;;0.90;72.20;;;;;;5042713;28;20025;-69
2021/01/29 08:04:29;;;;;;;15.43;11.75;;;1.00;72.70;;;;;;5042875;28;20079;-69
2021/01/29 08:07:03;;;;;;;16.20;11.88;;;1.00;71.10;;;;;;5042517;28;20033;-69
2021/01/29 08:09:36;;;;;;;17.85;12.38;;;1.10;70.70;;;;;;5039550;28;20044;-69
2021/01/29 08:12:17;;;;;;;15.00;11.27;;;1.10;70.30;;;;;;5039520;28;20013;-69
2021/01/29 08:15:06;;;;;;;18.52;12.30;;;1.20;70.00;;;;;;5039381;28;20029;-67
2021/01/29 08:18:08;;;;;;;13.10;10.25;;;1.30;70.90;;;;;;5037715;28;20425;-67
2021/01/29 08:20:43;;;;;;;17.70;12.63;;;1.30;69.60;;;;;;5039361;28;20029;-67
2021/01/29 08:23:38;;;;;;;18.13;13.63;;;1.30;71.80;;;;;;5039384;28;20083;-67
2021/01/29 08:26:25;;;;;;;15.93;11.32;;;1.30;71.50;;;;;;5038238;28;20295;-67
2021/01/29 08:29:09;;;;;;;14.50;10.02;;;1.40;71.00;;;;;;5039202;28;20487;-67
2021/01/29 08:32:01;;;;;;;16.63;10.40;;;1.40;70.90;;;;;;5039091;28;20033;-67
2021/01/29 08:34:27;;;;;;;17.50;10.05;;;1.50;70.40;;;;;;5039220;28;20031;-67
2021/01/29 08:37:14;;;;;;;12.05;9.82;;;1.60;69.30;;;;;;5038993;28;20049;-67
2021/01/29 08:39:47;;;;;;;11.18;9.15;;;1.70;69.70;;;;;;5039210;28;20036;-67
2021/01/29 08:42:31;;;;;;;12.15;9.10;;;1.80;69.20;;;;;;5039172;28;20026;-67
2021/01/29 08:45:16;;;;;;;10.13;8.25;;;1.80;68.20;;;;;;5038790;28;20017;-67
2021/01/29 08:48:03;;;;;;;10.05;7.78;;;1.70;67.10;;;;;;5038707;28;20033;-67
2021/01/29 08:50:53;;;;;;;12.57;8.57;;;1.80;67.80;;;;;;5038815;28;20497;-67
2021/01/29 08:53:34;;;;;;;15.50;10.15;;;1.90;68.00;;;;;;5038997;28;20075;-67
2021/01/29 08:56:18;;;;;;;17.98;10.93;;;1.90;71.20;;;;;;5038510;28;20021;-67
2021/01/29 08:59:03;;;;;;;14.65;10.65;;;1.90;70.50;;;;;;5038742;28;20036;-67
2021/01/29 09:01:48;;;;;;;14.38;10.77;;;2.00;69.70;;;;;;5038461;28;20025;-67
2021/01/29 09:04:38;;;;;;;15.32;10.32;;;1.90;70.60;;;;;;5038734;28;20022;-67
2021/01/29 09:07:19;;;;;;;15.80;11.20;;;1.90;71.10;;;;;;5038633;28;20373;-67
2021/01/29 09:09:46;;;;;;;14.32;11.10;;;1.80;71.40;;;;;;5038578;28;20030;-67
2021/01/29 09:12:25;;;;;;;17.33;11.57;;;1.80;70.80;;;;;;5038324;28;20033;-67
2021/01/29 09:15:00;;;;;;;16.25;12.38;;;1.70;71.00;;;;;;5038242;28;20029;-67
2021/01/29 09:17:45;;;;;;;15.25;11.75;;;1.70;71.00;;;;;;5038224;28;20049;-67
2021/01/29 09:20:13;;;;;;;15.73;11.57;;;1.80;71.80;;;;;;5037777;28;20422;-67
2021/01/29 09:22:54;;;;;;;13.60;10.63;;;2.30;71.00;;;;;;5038092;28;20256;-67
2021/01/29 09:25:47;;;;;;;15.43;9.40;;;2.70;69.10;;;;;;5036849;28;20025;-67
2021/01/29 09:28:22;;;;;;;14.15;8.48;;;3.50;64.20;;;;;;5038424;28;20041;-67
2021/01/29 09:31:18;;;;;;;11.25;7.38;;;4.20;60.80;;;;;;5037856;28;20049;-69
2021/01/29 09:34:14;;;;;;;9.35;7.13;;;4.90;58.30;;;;;;5036842;28;20025;-67
2021/01/29 09:36:47;;;;;;;13.45;8.73;;;6.00;55.80;;;;;;5037857;28;20429;-67
2021/01/29 09:39:22;;;;;;;9.68;7.50;;;7.00;52.80;;;;;;5037041;28;20037;-67
2021/01/29 09:42:29;;;;;;;10.45;7.40;;;8.10;52.60;;;;;;5037752;28;20022;-67
2021/01/29 09:45:00;;;;;;;10.15;6.43;;;9.10;48.90;;;;;;5036601;28;20042;-67
2021/01/29 09:47:28;;;;;;;9.20;8.15;;;9.60;48.20;;;;;;5037723;28;20044;-67
2021/01/29 09:50:10;;;;;;;10.60;7.45;;;9.70;48.60;;;;;;5037583;28;20056;-67
2021/01/29 09:52:54;;;;;;;9.18;7.63;;;9.60;48.30;;;;;;5037913;28;20417;-67
2021/01/29 09:55:39;;;;;;;9.90;8.00;;;8.80;51.00;;;;;;5037919;28;20029;-67
2021/01/29 09:58:15;;;;;;;8.82;7.78;;;8.40;51.10;;;;;;5036419;28;20029;-67
2021/01/29 10:00:45;;;;;;;10.50;8.00;;;7.60;52.10;;;;;;5037581;28;20418;-67
2021/01/29 10:03:17;;;;;;;9.85;7.13;;;6.90;54.40;;;;;;5036331;28;20053;-67
2021/01/29 10:06:00;;;;;;;10.35;7.93;;;6.30;54.70;;;;;;5037280;28;20071;-67
2021/01/29 10:08:28;;;;;;;9.90;7.60;;;5.90;56.10;;;;;;5036582;28;20487;-67
2021/01/29 10:11:20;;;;;;;10.68;7.57;;;5.80;56.70;;;;;;5040627;28;20029;-67
2021/01/29 10:13:54;;;;;;;10.55;7.75;;;5.90;57.00;;;;;;5054556;28;20060;-67
2021/01/29 10:16:23;;;;;;;9.57;7.38;;;7.00;53.50;;;;;;5057124;28;20112;-67
2021/01/29 10:19:26;;;;;;;9.45;7.28;;;8.20;51.40;;;;;;5057219;28;20029;-67
2021/01/29 10:21:58;;;;;;;10.98;7.63;;;9.20;48.60;;;;;;5055927;28;20041;-67
2021/01/29 10:24:40;;;;;;;9.30;7.93;;;9.70;49.30;;;;;;5056976;28;20029;-68
2021/01/29 10:27:34;;;;;;;9.20;6.70;;;10.20;47.50;;;;;;5056887;28;20063;-67
2021/01/29 10:30:17;;;;;;;8.52;7.03;;;10.60;46.00;;;;;;5056709;28;20052;-67
2021/01/29 10:33:11;;;;;;;8.90;6.32;;;10.20;45.40;;;;;;5056293;28;20028;-67
2021/01/29 10:35:45;;;;;;;8.80;7.10;;;9.60;47.30;;;;;;5056394;28;20068;-67
2021/01/29 10:38:33;;;;;;;9.25;6.25;;;8.70;48.60;;;;;;5056966;28;20025;-67
2021/01/29 10:41:06;;;;;;;8.98;7.22;;;8.20;49.80;;;;;;5056883;28;20040;-68
2021/01/29 10:44:02;;;;;;;8.80;6.65;;;8.00;51.30;;;;;;5056961;28;20075;-67
2021/01/29 10:47:05;;;;;;;7.10;5.72;;;8.60;50.40;;;;;;5056681;28;20472;-67
2021/01/29 10:49:49;;;;;;;7.68;5.70;;;8.90;49.60;;;;;;5055436;28;20033;-67
2021/01/29 10:52:30;;;;;;;9.20;5.55;;;8.90;47.60;;;;;;5056848;28;20539;-68
2021/01/29 10:54:57;;;;;;;7.72;5.90;;;8.00;47.30;;;;;;5056920;28;20036;-69
2021/01/29 10:57:42;;;;;;;8.68;5.97;;;7.10;50.10;;;;;;5056855;28;20032;-68
2021/01/29 11:00:27;;;;;;;10.10;5.90;;;6.60;51.90;;;;;;5056461;28;20025;-69
2021/01/29 11:03:05;;;;;;;9.25;7.38;;;6.10;53.30;;;;;;5056498;28;20052;-69
2021/01/29 11:05:34;;;;;;;13.50;7.60;;;5.80;55.90;;;;;;5056480;28;20107;-69
2021/01/29 11:08:12;;;;;;;9.00;6.70;;;5.70;56.60;;;;;;5056348;28;20061;-69
2021/01/29 11:10:40;;;;;;;7.28;4.07;;;5.60;55.50;;;;;;5056560;28;20045;-67
2021/01/29 11:13:19;;;;;;;4.85;3.83;;;5.60;52.60;;;;;;5056346;28;20091;-67
2021/01/29 11:15:55;;;;;;;5.22;4.00;;;5.00;52.30;;;;;;5056568;28;20316;-67
2021/01/29 11:18:22;;;;;;;;;;;4.80;52.70;;;;;;5056816;28;20158;-68
2021/01/29 11:20:49;;;;;;;5.90;3.80;;;4.70;53.40;;;;;;5056537;28;19912;-67
2021/01/29 11:23:37;;;;;;;5.07;4.15;;;4.70;54.50;;;;;;5056278;28;20321;-69
2021/01/29 11:26:13;;;;;;;5.88;3.65;;;4.70;54.10;;;;;;5056168;28;20040;-69
2021/01/29 11:28:51;;;;;;;8.18;5.10;;;4.90;56.30;;;;;;5056367;28;20418;-69
2021/01/29 11:31:31;;;;;;;7.60;5.60;;;5.20;57.20;;;;;;5056163;28;20048;-69
2021/01/29 11:34:00;;;;;;;9.00;6.68;;;5.50;57.30;;;;;;5056446;28;20045;-69
2021/01/29 11:36:39;;;;;;;9.13;6.32;;;5.50;57.30;;;;;;5055033;28;20029;-69
2021/01/29 11:39:48;;;;;;;8.25;6.53;;;5.50;56.90;;;;;;5056232;28;20032;-69
2021/01/29 11:42:36;;;;;;;9.57;7.05;;;5.40;57.50;;;;;;5054866;28;20087;-69
2021/01/29 11:45:09;;;;;;;10.27;6.90;;;5.20;58.40;;;;;;5059002;28;20033;-69
2021/01/29 11:48:07;;;;;;;11.45;7.53;;;5.20;60.20;;;;;;5059978;28;20039;-69
2021/01/29 11:51:12;;;;;;;8.18;7.22;;;5.30;59.40;;;;;;5059764;28;20103;-69
2021/01/29 11:54:01;;;;;;;12.55;7.53;;;5.30;59.90;;;;;;5060084;28;20109;-69
2021/01/29 11:56:52;;;;;;;12.93;7.38;;;5.40;58.20;;;;;;5059719;28;20029;-69
2021/01/29 11:59:46;;;;;;;8.23;6.00;;;5.40;59.40;;;;;;5059806;28;20067;-69
2021/01/29 12:02:35;;;;;;;10.75;7.05;;;5.40;57.90;;;;;;5059596;28;20421;-69
2021/01/29 12:05:47;;;;;;;10.65;7.10;;;5.20;57.50;;;;;;5059777;28;20417;-69
2021/01/29 12:08:38;;;;;;;8.73;6.45;;;5.00;57.70;;;;;;5059106;28;20033;-69
2021/01/29 12:11:06;;;;;;;10.98;8.02;;;5.00;57.90;;;;;;5059547;28;20099;-69
2021/01/29 12:13:53;;;;;;;11.30;8.25;;;4.90;59.50;;;;;;5059555;28;20021;-69
2021/01/29 12:16:21;;;;;;;;;;;5.00;59.20;;;;;;5058686;28;20060;-69
2021/01/29 12:18:50;;;;;;;15.73;9.65;;;5.10;59.80;;;;;;5059568;28;19952;-69
2021/01/29 12:21:30;;;;;;;16.52;9.82;;;5.00;60.30;;;;;;5059234;28;20025;-69
2021/01/29 12:24:06;;;;;;;13.18;10.15;;;5.00;60.30;;;;;;5059385;28;20374;-69
2021/01/29 12:26:47;;;;;;;;;;;5.00;60.60;;;;;;5059781;28;20035;-69
2021/01/29 12:29:32;;;;;;;13.32;10.52;;;5.00;60.40;;;;;;5059174;28;19909;-69
2021/01/29 12:32:24;;;;;;;14.98;10.77;;;4.90;61.10;;;;;;5059235;28;20033;-69
2021/01/29 12:35:08;;;;;;;14.60;10.90;;;4.90;60.90;;;;;;5059091;28;20075;-69
2021/01/29 12:37:36;;;;;;;17.52;10.05;;;4.80;61.60;;;;;;5058929;28;20021;-68
2021/01/29 12:40:13;;;;;;;12.55;9.98;;;4.70;60.90;;;;;;5059106;28;20029;-69
2021/01/29 12:42:42;;;;;;;15.00;10.10;;;4.60;60.50;;;;;;5059427;28;20119;-68
2021/01/29 12:45:38;;;;;;;10.50;8.30;;;4.50;60.40;;;;;;5058723;28;20360;-69
2021/01/29 12:48:31;;;;;;;11.03;8.10;;;4.40;60.60;;;;;;5058982;28;20028;-69
2021/01/29 12:51:05;;;;;;;10.48;7.15;;;4.30;61.50;;;;;;5058916;28;20040;-69
2021/01/29 12:53:40;;;;;;;12.57;6.85;;;4.30;60.60;;;;;;5058349;28;20033;-69
2021/01/29 12:56:14;;;;;;;10.98;6.72;;;4.10;60.10;;;;;;5058226;28;20072;-69
2021/01/29 12:58:49;;;;;;;8.93;6.38;;;4.00;60.30;;;;;;5058722;28;20333;-69
2021/01/29 13:01:39;;;;;;;7.78;6.22;;;4.00;60.20;;;;;;5058528;28;20029;-69
2021/01/29 13:04:13;;;;;;;10.30;5.95;;;4.00;60.50;;;;;;5058264;28;20451;-69
2021/01/29 13:06:50;;;;;;;8.77;5.40;;;4.10;59.50;;;;;;5058332;28;20029;-69
2021/01/29 13:09:16;;;;;;;7.40;5.38;;;4.10;59.40;;;;;;5058607;28;20101;-69
2021/01/29 13:11:59;;;;;;;8.77;5.20;;;4.20;59.70;;;;;;5058266;28;20492;-69
2021/01/29 13:14:44;;;;;;;8.02;5.40;;;4.20;58.80;;;;;;5058251;28;20020;-69
2021/01/29 13:17:47;;;;;;;7.07;5.53;;;4.30;60.10;;;;;;5058185;28;20017;-69
2021/01/29 13:20:18;;;;;;;10.68;7.93;;;4.50;60.20;;;;;;5057860;28;20037;-69
2021/01/29 13:22:55;;;;;;;12.80;8.95;;;4.60;60.10;;;;;;5058459;28;20075;-69
2021/01/29 13:25:26;;;;;;;12.80;7.07;;;4.60;61.30;;;;;;5058266;28;20029;-69
2021/01/29 13:28:01;;;;;;;11.73;8.88;;;4.70;61.20;;;;;;5058177;28;20029;-69
2021/01/29 13:30:37;;;;;;;13.63;9.75;;;4.70;63.60;;;;;;5057968;28;20124;-69
2021/01/29 13:33:23;;;;;;;11.70;9.20;;;4.80;63.10;;;;;;5056876;28;20058;-69
2021/01/29 13:36:09;;;;;;;14.23;9.68;;;4.70;63.30;;;;;;5057827;28;20021;-69
2021/01/29 13:38:38;;;;;;;12.65;9.50;;;4.70;62.20;;;;;;5057794;28;20123;-69
2021/01/29 13:41:11;;;;;;;14.18;9.73;;;4.60;63.60;;;;;;5057731;28;20070;-69
2021/01/29 13:43:37;;;;;;;12.90;9.32;;;4.50;64.20;;;;;;5057926;28;20072;-69
2021/01/29 13:46:08;;;;;;;15.55;10.27;;;4.50;64.40;;;;;;5057563;28;20021;-69
2021/01/29 13:48:35;;;;;;;14.15;11.02;;;4.40;63.20;;;;;;5058111;28;20036;-69